createdAt,value
2019-03-29T00:01:06.389Z,9.33
2019-03-29T00:03:36.142Z,9.57
2019-03-29T00:06:05.932Z,9.47
2019-03-29T00:08:36.112Z,9.63
2019-03-29T00:11:06.234Z,9.93
2019-03-29T00:13:36.112Z,9.53
2019-03-29T00:16:05.980Z,10.47
2019-03-29T00:18:36.098Z,9.13
2019-03-29T00:21:06.231Z,10.10
2019-03-29T00:23:36.023Z,10.03
2019-03-29T00:26:05.892Z,9.60
2019-03-29T00:28:36.850Z,9.37
2019-03-29T00:31:06.782Z,10.47
2019-03-29T00:33:36.652Z,10.10
2019-03-29T00:36:06.466Z,10.50
2019-03-29T00:38:36.334Z,9.93
2019-03-29T00:41:06.308Z,9.80
2019-03-29T00:43:36.148Z,10.07
2019-03-29T00:46:06.088Z,9.73
2019-03-29T00:48:36.128Z,11.10
2019-03-29T00:51:06.018Z,10.27
2019-03-29T00:53:35.947Z,10.23
2019-03-29T00:56:06.163Z,10.03
2019-03-29T00:58:35.990Z,9.73
2019-03-29T01:01:05.827Z,10.50
2019-03-29T01:03:37.020Z,10.50
2019-03-29T01:06:07.022Z,10.17
2019-03-29T01:08:37.942Z,9.80
2019-03-29T01:11:07.968Z,10.73
2019-03-29T01:13:37.760Z,11.00
2019-03-29T01:16:07.652Z,11.83
2019-03-29T01:18:38.094Z,11.23
2019-03-29T01:21:08.155Z,10.90
2019-03-29T01:23:37.942Z,11.50
2019-03-29T01:26:07.709Z,11.70
2019-03-29T01:28:37.951Z,11.03
2019-03-29T01:31:08.604Z,10.93
2019-03-29T01:33:38.463Z,11.00
2019-03-29T01:36:08.381Z,10.80
2019-03-29T01:38:38.264Z,11.43
2019-03-29T01:41:08.102Z,11.70
2019-03-29T01:43:37.953Z,11.60
2019-03-29T01:46:07.758Z,11.30
2019-03-29T01:48:37.567Z,11.13
2019-03-29T01:51:07.360Z,11.30
2019-03-29T01:53:37.292Z,10.77
2019-03-29T01:56:07.824Z,11.50
2019-03-29T01:58:37.613Z,12.03
2019-03-29T02:01:07.416Z,11.90
2019-03-29T02:03:37.233Z,11.60
2019-03-29T02:06:07.035Z,10.93
2019-03-29T02:08:37.812Z,11.43
2019-03-29T02:11:07.998Z,12.70
2019-03-29T02:13:37.847Z,11.60
2019-03-29T02:16:07.669Z,12.00
2019-03-29T02:18:37.546Z,11.80
2019-03-29T02:21:07.415Z,12.37
2019-03-29T02:23:37.267Z,12.50
2019-03-29T02:26:07.065Z,12.03
2019-03-29T02:28:36.855Z,12.53
2019-03-29T02:31:06.734Z,12.43
2019-03-29T02:33:36.545Z,11.60
2019-03-29T02:36:06.752Z,11.57
2019-03-29T02:38:54.235Z,12.70
2019-03-29T02:41:08.490Z,12.37
2019-03-29T02:43:38.706Z,12.10
2019-03-29T02:46:08.868Z,11.83
2019-03-29T02:48:38.691Z,12.23
2019-03-29T02:51:08.581Z,12.03
2019-03-29T02:53:38.549Z,12.50
2019-03-29T02:56:08.344Z,12.50
2019-03-29T02:58:38.225Z,12.17
2019-03-29T03:01:08.048Z,12.77
2019-03-29T03:03:37.857Z,12.17
2019-03-29T03:06:07.776Z,12.70
2019-03-29T03:08:37.681Z,12.37
2019-03-29T03:11:07.509Z,11.80
2019-03-29T03:13:37.383Z,12.37
2019-03-29T03:16:07.235Z,12.67
2019-03-29T03:18:37.155Z,11.90
2019-03-29T03:21:07.049Z,12.67
2019-03-29T03:23:36.902Z,12.63
2019-03-29T03:26:06.792Z,11.63
2019-03-29T03:28:36.685Z,12.33
2019-03-29T03:31:06.587Z,11.87
2019-03-29T03:33:36.490Z,12.20
2019-03-29T03:36:06.393Z,11.93
2019-03-29T03:38:36.267Z,11.73
2019-03-29T03:41:06.282Z,11.97
2019-03-29T03:43:36.133Z,11.13
2019-03-29T03:46:05.977Z,11.57
2019-03-29T03:48:35.776Z,11.13
2019-03-29T03:51:05.918Z,10.97
2019-03-29T03:53:35.991Z,11.83
2019-03-29T03:56:06.999Z,11.07
2019-03-29T03:58:38.344Z,11.00
2019-03-29T04:01:08.278Z,11.03
2019-03-29T04:03:56.928Z,10.63
2019-03-29T04:06:26.824Z,10.60
2019-03-29T04:08:56.625Z,11.20
2019-03-29T04:11:26.520Z,11.70
2019-03-29T04:13:56.382Z,10.93
2019-03-29T04:16:26.209Z,11.03
2019-03-29T04:18:56.078Z,10.03
2019-03-29T04:21:25.976Z,10.30
2019-03-29T04:23:55.787Z,10.50
2019-03-29T04:26:25.675Z,11.53
2019-03-29T04:29:04.140Z,10.53
2019-03-29T04:31:27.079Z,10.37
2019-03-29T04:33:56.918Z,11.50
2019-03-29T04:36:26.792Z,10.73
2019-03-29T04:38:56.670Z,11.37
2019-03-29T04:41:26.496Z,10.57
2019-03-29T04:43:56.300Z,11.80
2019-03-29T04:46:26.207Z,11.13
2019-03-29T04:48:56.038Z,11.03
2019-03-29T04:51:25.922Z,11.50
2019-03-29T04:53:55.773Z,11.57
2019-03-29T04:56:25.626Z,12.53
2019-03-29T04:58:55.426Z,11.70
2019-03-29T05:01:25.246Z,11.90
2019-03-29T05:03:55.173Z,11.80
2019-03-29T05:06:24.978Z,12.13
2019-03-29T05:08:54.793Z,12.10
2019-03-29T05:11:24.617Z,12.17
2019-03-29T05:13:54.433Z,11.70
2019-03-29T05:16:24.231Z,12.60
2019-03-29T05:18:54.030Z,12.03
2019-03-29T05:21:23.839Z,12.60
2019-03-29T05:23:53.616Z,13.03
2019-03-29T05:26:25.409Z,12.43
2019-03-29T05:28:54.968Z,12.23
2019-03-29T05:31:24.795Z,12.87
2019-03-29T05:33:54.587Z,12.50
2019-03-29T05:36:24.413Z,14.47
2019-03-29T05:38:54.272Z,14.17
2019-03-29T05:41:24.071Z,13.80
2019-03-29T05:43:53.925Z,14.60
2019-03-29T05:46:23.772Z,12.83
2019-03-29T05:48:53.599Z,14.33
2019-03-29T05:51:23.459Z,13.50
2019-03-29T05:53:53.290Z,13.90
2019-03-29T05:56:23.015Z,14.53
2019-03-29T05:58:52.831Z,13.70
2019-03-29T06:01:22.631Z,13.63
2019-03-29T06:03:52.455Z,14.87
2019-03-29T06:06:22.255Z,14.83
2019-03-29T06:08:52.165Z,14.83
2019-03-29T06:11:21.947Z,14.53
2019-03-29T06:13:51.763Z,14.00
2019-03-29T06:16:21.564Z,15.70
2019-03-29T06:18:51.411Z,14.20
2019-03-29T06:21:21.205Z,15.43
2019-03-29T06:23:51.042Z,15.70
2019-03-29T06:26:20.903Z,16.07
2019-03-29T06:28:50.706Z,15.23
2019-03-29T06:31:20.492Z,14.93
2019-03-29T06:33:50.315Z,14.70
2019-03-29T06:36:22.516Z,14.43
2019-03-29T06:38:54.347Z,13.93
2019-03-29T06:41:24.129Z,14.63
2019-03-29T06:43:54.024Z,13.83
2019-03-29T06:46:23.884Z,13.70
2019-03-29T06:48:53.719Z,13.97
2019-03-29T06:51:23.532Z,13.53
2019-03-29T06:53:53.355Z,13.90
2019-03-29T06:56:23.151Z,14.67
2019-03-29T06:58:53.054Z,14.03
2019-03-29T07:01:22.854Z,13.30
2019-03-29T07:03:52.675Z,14.00
2019-03-29T07:06:22.551Z,13.33
2019-03-29T07:08:52.354Z,13.90
2019-03-29T07:11:22.123Z,13.83
2019-03-29T07:13:57.638Z,13.13
2019-03-29T07:16:23.368Z,13.77
2019-03-29T07:18:53.225Z,13.57
2019-03-29T07:21:23.014Z,13.57
2019-03-29T07:23:52.897Z,13.90
2019-03-29T07:26:22.718Z,13.77
2019-03-29T07:28:52.636Z,13.33
2019-03-29T07:31:22.531Z,13.40
2019-03-29T07:33:53.639Z,13.17
2019-03-29T07:36:23.459Z,12.97
2019-03-29T07:38:53.371Z,13.57
2019-03-29T07:41:31.611Z,13.30
2019-03-29T07:43:54.743Z,14.03
2019-03-29T07:46:24.564Z,13.50
2019-03-29T07:48:54.491Z,13.43
2019-03-29T07:51:24.394Z,14.00
2019-03-29T07:53:54.229Z,14.20
2019-03-29T07:56:24.023Z,13.13
2019-03-29T07:58:53.917Z,13.77
2019-03-29T08:01:23.795Z,12.97
2019-03-29T08:03:53.656Z,13.30
2019-03-29T08:06:23.535Z,13.83
2019-03-29T08:08:53.301Z,13.53
2019-03-29T08:11:26.402Z,13.73
2019-03-29T08:13:54.678Z,13.23
2019-03-29T08:16:24.553Z,19.20
2019-03-29T08:18:54.352Z,12.67
2019-03-29T08:21:24.263Z,13.93
2019-03-29T08:23:54.083Z,12.67
2019-03-29T08:26:23.873Z,12.43
2019-03-29T08:28:53.682Z,13.13
2019-03-29T08:31:23.491Z,13.03
2019-03-29T08:33:53.383Z,12.63
2019-03-29T08:36:23.191Z,12.57
2019-03-29T08:38:53.003Z,11.40
2019-03-29T08:41:22.787Z,10.50
2019-03-29T08:43:52.611Z,12.50
2019-03-29T08:46:22.417Z,11.70
2019-03-29T08:48:52.229Z,12.00
2019-03-29T08:51:22.039Z,11.17
2019-03-29T08:53:51.911Z,12.10
2019-03-29T08:56:21.832Z,11.17
2019-03-29T08:58:51.883Z,10.07
2019-03-29T09:01:21.860Z,11.33
2019-03-29T09:04:03.187Z,11.97
2019-03-29T09:06:23.888Z,10.70
2019-03-29T09:08:53.943Z,11.63
2019-03-29T09:11:23.992Z,10.93
2019-03-29T09:13:53.907Z,10.37
2019-03-29T09:16:24.195Z,11.03
2019-03-29T09:19:06.526Z,11.00
2019-03-29T09:21:36.686Z,10.57
2019-03-29T09:24:20.738Z,9.90
2019-03-29T09:26:38.267Z,9.13
2019-03-29T09:29:08.179Z,9.63
2019-03-29T09:31:38.181Z,9.13
2019-03-29T09:34:08.238Z,8.00
2019-03-29T09:36:38.188Z,8.80
2019-03-29T09:39:09.034Z,8.77
2019-03-29T09:41:38.953Z,8.83
2019-03-29T09:44:08.855Z,8.40
2019-03-29T09:46:38.826Z,7.80
2019-03-29T09:49:08.676Z,9.13
2019-03-29T09:51:38.655Z,10.03
2019-03-29T09:54:08.622Z,8.83
2019-03-29T09:56:39.551Z,8.10
2019-03-29T09:59:09.742Z,7.73
2019-03-29T10:01:39.634Z,9.47
2019-03-29T10:04:09.531Z,9.60
2019-03-29T10:06:39.491Z,9.53
2019-03-29T10:09:09.431Z,7.43
2019-03-29T10:11:39.239Z,6.90
2019-03-29T10:14:09.098Z,7.00
2019-03-29T10:16:38.921Z,6.60
2019-03-29T10:19:08.782Z,6.83
2019-03-29T10:21:38.583Z,6.80
2019-03-29T10:24:08.424Z,6.70
2019-03-29T10:26:38.325Z,6.07
2019-03-29T10:29:08.099Z,5.50
2019-03-29T10:31:37.943Z,6.30
2019-03-29T10:34:07.768Z,5.80
2019-03-29T10:36:37.590Z,6.47
2019-03-29T10:39:12.267Z,6.30
2019-03-29T10:41:42.416Z,6.10
2019-03-29T10:44:12.222Z,6.30
2019-03-29T10:46:42.076Z,7.03
2019-03-29T10:49:11.951Z,6.90
2019-03-29T10:51:41.825Z,7.13
2019-03-29T10:54:11.755Z,6.83
2019-03-29T10:56:41.584Z,7.30
2019-03-29T10:59:11.511Z,6.67
2019-03-29T11:01:41.328Z,6.67
2019-03-29T11:04:11.131Z,6.80
2019-03-29T11:06:40.929Z,6.87
2019-03-29T11:09:10.799Z,7.17
2019-03-29T11:11:40.583Z,7.33
2019-03-29T11:14:10.374Z,6.70
2019-03-29T11:16:40.189Z,5.53
2019-03-29T11:19:09.996Z,6.00
2019-03-29T11:21:39.796Z,6.47
2019-03-29T11:24:09.660Z,6.47
2019-03-29T11:26:39.387Z,5.63
2019-03-29T11:29:09.242Z,6.00
2019-03-29T11:31:39.063Z,5.73
2019-03-29T11:34:08.863Z,5.97
2019-03-29T11:36:38.665Z,6.00
2019-03-29T11:39:08.982Z,6.53
2019-03-29T11:41:38.933Z,5.90
2019-03-29T11:44:09.381Z,6.60
2019-03-29T11:46:39.309Z,7.03
2019-03-29T11:49:09.216Z,6.63
2019-03-29T11:51:39.045Z,6.67
2019-03-29T11:54:08.903Z,6.70
2019-03-29T11:56:38.777Z,6.63
2019-03-29T11:59:08.740Z,6.30
2019-03-29T12:01:38.591Z,6.10
2019-03-29T12:04:08.464Z,6.00
2019-03-29T12:06:38.261Z,5.60
2019-03-29T12:09:08.664Z,5.50
2019-03-29T12:11:38.563Z,5.07
2019-03-29T12:14:08.490Z,5.90
2019-03-29T12:16:38.321Z,5.33
2019-03-29T12:19:08.218Z,5.00
2019-03-29T12:21:38.095Z,5.83
2019-03-29T12:24:08.019Z,4.97
2019-03-29T12:26:37.869Z,5.73
2019-03-29T12:29:07.695Z,5.83
2019-03-29T12:31:37.510Z,5.83
2019-03-29T12:34:07.364Z,5.53
2019-03-29T12:36:37.207Z,5.30
2019-03-29T12:39:08.007Z,5.27
2019-03-29T12:41:37.879Z,5.27
2019-03-29T12:44:07.696Z,5.03
2019-03-29T12:46:37.474Z,6.07
2019-03-29T12:49:07.410Z,25.30
2019-03-29T12:51:37.279Z,5.00
2019-03-29T12:54:07.191Z,5.27
2019-03-29T12:56:36.967Z,4.47
2019-03-29T12:59:06.760Z,4.53
2019-03-29T13:01:39.832Z,4.67
2019-03-29T13:04:09.762Z,4.67
2019-03-29T13:06:39.481Z,4.60
2019-03-29T13:09:09.701Z,4.27
2019-03-29T13:11:39.475Z,4.50
2019-03-29T13:14:10.794Z,4.33
2019-03-29T13:16:40.935Z,4.40
2019-03-29T13:19:10.802Z,4.20
2019-03-29T13:21:40.619Z,4.40
2019-03-29T13:24:10.404Z,4.80
2019-03-29T13:26:40.286Z,4.77
2019-03-29T13:29:10.067Z,4.43
2019-03-29T13:31:39.886Z,4.30
2019-03-29T13:34:09.663Z,4.47
2019-03-29T13:36:39.471Z,4.23
2019-03-29T13:39:09.564Z,4.13
2019-03-29T13:41:39.423Z,4.27
2019-03-29T13:44:22.954Z,4.20
2019-03-29T13:46:40.738Z,3.60
2019-03-29T13:49:10.523Z,3.77
2019-03-29T13:51:40.417Z,4.00
2019-03-29T13:54:10.370Z,3.87
2019-03-29T13:56:40.163Z,3.50
2019-03-29T13:59:09.932Z,4.57
2019-03-29T14:01:39.733Z,3.83
2019-03-29T14:04:09.425Z,3.70
2019-03-29T14:06:39.151Z,4.03
2019-03-29T14:09:09.260Z,3.83
2019-03-29T14:11:39.048Z,3.90
2019-03-29T14:14:08.838Z,3.70
2019-03-29T14:16:38.685Z,4.23
2019-03-29T14:19:08.467Z,4.10
2019-03-29T14:21:38.270Z,3.87
2019-03-29T14:24:08.130Z,3.80
2019-03-29T14:26:37.927Z,3.60
2019-03-29T14:29:07.700Z,3.97
2019-03-29T14:31:37.494Z,3.27
2019-03-29T14:34:07.267Z,4.47
2019-03-29T14:36:37.057Z,3.80
2019-03-29T14:39:07.748Z,3.57
2019-03-29T14:41:37.700Z,4.17
2019-03-29T14:44:07.459Z,4.23
2019-03-29T14:46:37.263Z,3.73
2019-03-29T14:49:07.047Z,4.33
2019-03-29T14:51:36.880Z,3.83
2019-03-29T14:54:06.676Z,4.30
2019-03-29T14:56:36.491Z,4.10
2019-03-29T14:59:06.269Z,4.30
2019-03-29T15:01:36.074Z,3.77
2019-03-29T15:04:05.853Z,4.73
2019-03-29T15:06:35.736Z,4.87
2019-03-29T15:09:07.353Z,4.50
2019-03-29T15:11:37.131Z,4.37
2019-03-29T15:14:06.935Z,4.43
2019-03-29T15:16:36.639Z,4.50
2019-03-29T15:19:06.444Z,4.07
2019-03-29T15:21:36.283Z,4.00
2019-03-29T15:24:06.098Z,4.23
2019-03-29T15:26:35.939Z,4.60
2019-03-29T15:29:05.746Z,3.80
2019-03-29T15:31:35.528Z,4.30
2019-03-29T15:34:05.261Z,4.20
2019-03-29T15:36:35.057Z,4.70
2019-03-29T15:39:05.547Z,4.17
2019-03-29T15:41:35.403Z,4.93
2019-03-29T15:44:05.322Z,4.57
2019-03-29T15:46:35.018Z,4.67
2019-03-29T15:49:04.888Z,4.10
2019-03-29T15:51:34.678Z,4.33
2019-03-29T15:54:04.507Z,4.53
2019-03-29T15:56:34.294Z,3.80
2019-03-29T15:59:04.091Z,4.07
2019-03-29T16:01:33.953Z,4.47
2019-03-29T16:04:03.789Z,4.00
2019-03-29T16:06:33.575Z,3.97
2019-03-29T16:09:04.006Z,4.60
2019-03-29T16:11:33.807Z,4.80
2019-03-29T16:14:03.619Z,4.57
2019-03-29T16:16:33.409Z,3.97
2019-03-29T16:19:03.223Z,3.93
2019-03-29T16:21:32.917Z,3.77
2019-03-29T16:24:02.736Z,4.10
2019-03-29T16:26:32.573Z,4.93
2019-03-29T16:29:02.383Z,3.60
2019-03-29T16:31:32.176Z,3.60
2019-03-29T16:34:01.992Z,3.97
2019-03-29T16:36:31.847Z,4.13
2019-03-29T16:39:01.647Z,4.10
2019-03-29T16:41:31.346Z,3.80
2019-03-29T16:44:01.145Z,4.00
2019-03-29T16:46:31.027Z,3.90
2019-03-29T16:49:00.854Z,4.23
2019-03-29T16:51:30.713Z,4.47
2019-03-29T16:54:00.571Z,3.53
2019-03-29T16:56:30.506Z,3.50
2019-03-29T16:59:00.327Z,4.10
2019-03-29T17:01:30.123Z,3.97
2019-03-29T17:03:59.992Z,4.23
2019-03-29T17:06:29.852Z,4.07
2019-03-29T17:08:59.630Z,3.73
2019-03-29T17:11:29.436Z,3.53
2019-03-29T17:13:59.210Z,3.50
2019-03-29T17:16:30.683Z,3.50
2019-03-29T17:19:00.515Z,3.63
2019-03-29T17:21:30.305Z,3.70
2019-03-29T17:24:00.159Z,3.13
2019-03-29T17:26:29.955Z,3.57
2019-03-29T17:28:59.731Z,3.07
2019-03-29T17:31:29.559Z,3.00
2019-03-29T17:33:59.413Z,3.03
2019-03-29T17:36:29.232Z,3.10
2019-03-29T17:38:59.075Z,3.00
2019-03-29T17:41:28.889Z,3.00
2019-03-29T17:43:58.662Z,3.50
2019-03-29T17:46:28.505Z,2.50
2019-03-29T17:48:58.332Z,2.83
2019-03-29T17:51:28.189Z,2.87
2019-03-29T17:53:58.208Z,2.90
2019-03-29T17:56:28.091Z,3.00
2019-03-29T17:58:57.949Z,2.70
2019-03-29T18:01:27.783Z,3.57
2019-03-29T18:03:57.503Z,2.80
2019-03-29T18:06:27.473Z,3.53
2019-03-29T18:08:57.300Z,4.23
2019-03-29T18:11:27.108Z,3.50
2019-03-29T18:13:56.909Z,2.70
2019-03-29T18:16:30.793Z,2.60
2019-03-29T18:18:58.276Z,3.50
2019-03-29T18:21:28.151Z,3.30
2019-03-29T18:23:57.986Z,3.30
2019-03-29T18:26:28.680Z,3.00
2019-03-29T18:28:58.486Z,3.10
2019-03-29T18:31:28.300Z,3.47
2019-03-29T18:33:58.183Z,3.17
2019-03-29T18:36:28.163Z,3.40
2019-03-29T18:38:57.971Z,3.37
2019-03-29T18:41:27.879Z,3.47
2019-03-29T18:43:57.667Z,3.40
2019-03-29T18:46:27.489Z,3.30
2019-03-29T18:48:57.266Z,3.70
2019-03-29T18:51:27.097Z,3.60
2019-03-29T18:53:57.532Z,3.47
2019-03-29T18:56:27.341Z,3.83
2019-03-29T18:58:57.152Z,3.60
2019-03-29T19:01:27.091Z,4.37
2019-03-29T19:03:57.024Z,4.13
2019-03-29T19:06:27.063Z,4.07
2019-03-29T19:08:57.126Z,4.30
2019-03-29T19:11:27.049Z,4.40
2019-03-29T19:13:56.940Z,4.53
2019-03-29T19:16:26.781Z,3.87
2019-03-29T19:19:09.483Z,3.90
2019-03-29T19:21:28.144Z,4.47
2019-03-29T19:23:57.959Z,4.00
2019-03-29T19:26:27.861Z,4.30
2019-03-29T19:28:57.641Z,4.40
2019-03-29T19:31:27.499Z,3.90
2019-03-29T19:33:57.387Z,3.83
2019-03-29T19:36:27.291Z,4.57
2019-03-29T19:38:57.077Z,4.57
2019-03-29T19:41:26.989Z,4.43
2019-03-29T19:43:56.908Z,3.90
2019-03-29T19:46:26.819Z,4.43
2019-03-29T19:48:56.687Z,4.20
2019-03-29T19:51:26.555Z,4.70
2019-03-29T19:54:06.792Z,4.63
2019-03-29T19:56:27.959Z,6.07
2019-03-29T19:58:57.822Z,7.07
2019-03-29T20:01:27.730Z,5.83
2019-03-29T20:03:57.552Z,4.80
2019-03-29T20:06:27.360Z,4.60
2019-03-29T20:08:57.264Z,4.60
2019-03-29T20:11:27.158Z,5.23
2019-03-29T20:13:57.025Z,4.93
2019-03-29T20:16:26.834Z,5.00
2019-03-29T20:18:56.618Z,4.97
2019-03-29T20:21:26.582Z,5.43
2019-03-29T20:23:56.451Z,5.57
2019-03-29T20:26:26.295Z,5.60
2019-03-29T20:28:56.137Z,5.70
2019-03-29T20:31:26.017Z,5.70
2019-03-29T20:33:55.883Z,6.00
2019-03-29T20:36:25.760Z,5.47
2019-03-29T20:38:55.599Z,6.90
2019-03-29T20:41:26.539Z,6.77
2019-03-29T20:43:56.632Z,6.17
2019-03-29T20:46:28.307Z,6.83
2019-03-29T20:48:58.171Z,7.27
2019-03-29T20:51:28.249Z,6.67
2019-03-29T20:53:59.542Z,7.47
2019-03-29T20:56:31.229Z,7.50
2019-03-29T20:59:01.410Z,8.50
2019-03-29T21:01:31.210Z,10.07
2019-03-29T21:04:04.672Z,8.83
2019-03-29T21:06:34.599Z,10.10
2019-03-29T21:09:06.172Z,9.60
2019-03-29T21:11:37.187Z,9.10
2019-03-29T21:14:07.024Z,9.23
2019-03-29T21:16:37.092Z,8.83
2019-03-29T21:19:06.895Z,8.30
2019-03-29T21:21:36.685Z,8.40
2019-03-29T21:24:06.906Z,8.03
2019-03-29T21:26:36.922Z,7.97
2019-03-29T21:29:06.722Z,7.67
2019-03-29T21:31:36.558Z,7.83
2019-03-29T21:34:06.337Z,8.10
2019-03-29T21:36:36.188Z,7.93
2019-03-29T21:39:10.435Z,8.33
2019-03-29T21:41:40.265Z,8.40
2019-03-29T21:44:10.103Z,9.60
2019-03-29T21:46:39.959Z,8.63
2019-03-29T21:49:09.766Z,8.87
2019-03-29T21:51:39.704Z,8.50
2019-03-29T21:54:09.663Z,9.00
2019-03-29T21:56:39.802Z,9.50
2019-03-29T21:59:09.679Z,9.10
2019-03-29T22:01:40.629Z,8.90
2019-03-29T22:04:11.247Z,9.07
2019-03-29T22:06:41.144Z,8.93
2019-03-29T22:09:10.934Z,9.13
2019-03-29T22:11:40.763Z,9.20
2019-03-29T22:14:10.575Z,9.10
2019-03-29T22:16:40.469Z,9.30
2019-03-29T22:19:10.347Z,9.57
2019-03-29T22:21:40.248Z,9.77
2019-03-29T22:24:10.131Z,9.27
2019-03-29T22:26:39.955Z,9.00
2019-03-29T22:29:09.742Z,9.43
2019-03-29T22:31:39.594Z,9.30
2019-03-29T22:34:09.425Z,9.90
2019-03-29T22:36:39.380Z,16.20
2019-03-29T22:39:09.380Z,16.17
2019-03-29T22:41:39.188Z,11.07
2019-03-29T22:44:09.044Z,9.13
2019-03-29T22:46:38.868Z,9.20
2019-03-29T22:49:08.699Z,9.10
2019-03-29T22:51:38.612Z,9.20
2019-03-29T22:54:08.506Z,9.53
2019-03-29T22:56:38.298Z,9.77
2019-03-29T22:59:08.215Z,9.67
2019-03-29T23:01:41.843Z,8.50
2019-03-29T23:04:11.662Z,8.77
2019-03-29T23:06:41.547Z,9.27
2019-03-29T23:09:11.983Z,9.20
2019-03-29T23:11:42.059Z,9.03
2019-03-29T23:14:11.888Z,8.57
2019-03-29T23:16:41.695Z,9.20
2019-03-29T23:19:11.520Z,9.47
2019-03-29T23:21:41.318Z,9.63
2019-03-29T23:24:11.169Z,8.23
2019-03-29T23:26:41.133Z,9.67
2019-03-29T23:29:11.021Z,9.10
2019-03-29T23:31:40.918Z,9.60
2019-03-29T23:34:10.738Z,8.33
2019-03-29T23:36:40.539Z,9.40
2019-03-29T23:39:10.463Z,9.23
2019-03-29T23:41:40.251Z,10.00
2019-03-29T23:44:10.156Z,9.87
2019-03-29T23:46:39.981Z,10.03
2019-03-29T23:49:20.392Z,9.47
2019-03-29T23:51:41.402Z,9.87
2019-03-29T23:54:11.248Z,9.30
2019-03-29T23:56:41.070Z,9.40
2019-03-29T23:59:10.906Z,9.20
